sensor_id;sensor_type;location;lat;lon;timestamp;P1;durP1;ratioP1;P2;durP2;ratioP2
18887;SDS011;9576;47.792;9.628;2023-09-08T00:01:21;11.95;;;6.88;;
18887;SDS011;9576;47.792;9.628;2023-09-08T00:04:23;15.73;;;6.68;;
18887;SDS011;9576;47.792;9.628;2023-09-08T00:07:25;12.10;;;6.90;;
18887;SDS011;9576;47.792;9.628;2023-09-08T00:10:28;10.77;;;7.22;;
18887;SDS011;9576;47.792;9.628;2023-09-08T00:13:30;12.13;;;7.30;;
18887;SDS011;9576;47.792;9.628;2023-09-08T00:16:33;17.48;;;7.07;;
18887;SDS011;9576;47.792;9.628;2023-09-08T00:19:35;10.70;;;7.65;;
18887;SDS011;9576;47.792;9.628;2023-09-08T00:22:38;14.15;;;7.68;;
18887;SDS011;9576;47.792;9.628;2023-09-08T00:25:40;20.17;;;7.80;;
18887;SDS011;9576;47.792;9.628;2023-09-08T00:28:42;14.55;;;7.43;;
18887;SDS011;9576;47.792;9.628;2023-09-08T00:31:46;12.70;;;7.40;;
18887;SDS011;9576;47.792;9.628;2023-09-08T00:34:48;20.23;;;7.20;;
18887;SDS011;9576;47.792;9.628;2023-09-08T00:37:50;11.02;;;7.57;;
18887;SDS011;9576;47.792;9.628;2023-09-08T00:40:52;17.92;;;8.43;;
18887;SDS011;9576;47.792;9.628;2023-09-08T00:43:54;18.15;;;7.95;;
18887;SDS011;9576;47.792;9.628;2023-09-08T00:46:58;16.55;;;8.07;;
18887;SDS011;9576;47.792;9.628;2023-09-08T00:50:00;12.25;;;7.97;;
18887;SDS011;9576;47.792;9.628;2023-09-08T00:53:03;11.48;;;7.97;;
18887;SDS011;9576;47.792;9.628;2023-09-08T00:56:06;16.65;;;8.13;;
18887;SDS011;9576;47.792;9.628;2023-09-08T00:59:10;12.13;;;7.88;;
18887;SDS011;9576;47.792;9.628;2023-09-08T01:02:13;12.07;;;7.97;;
18887;SDS011;9576;47.792;9.628;2023-09-08T01:05:16;9.15;;;7.45;;
18887;SDS011;9576;47.792;9.628;2023-09-08T01:08:18;11.80;;;7.65;;
18887;SDS011;9576;47.792;9.628;2023-09-08T01:11:21;10.93;;;7.53;;
18887;SDS011;9576;47.792;9.628;2023-09-08T01:14:25;14.52;;;9.07;;
18887;SDS011;9576;47.792;9.628;2023-09-08T01:17:30;16.80;;;8.57;;
18887;SDS011;9576;47.792;9.628;2023-09-08T01:20:34;14.55;;;8.85;;
18887;SDS011;9576;47.792;9.628;2023-09-08T01:23:52;11.13;;;8.27;;
18887;SDS011;9576;47.792;9.628;2023-09-08T01:27:11;16.92;;;8.52;;
18887;SDS011;9576;47.792;9.628;2023-09-08T01:30:15;12.73;;;7.38;;
18887;SDS011;9576;47.792;9.628;2023-09-08T01:33:17;13.80;;;7.80;;
18887;SDS011;9576;47.792;9.628;2023-09-08T01:36:20;12.30;;;8.15;;
18887;SDS011;9576;47.792;9.628;2023-09-08T01:39:22;15.18;;;8.50;;
18887;SDS011;9576;47.792;9.628;2023-09-08T01:42:26;11.88;;;8.57;;
18887;SDS011;9576;47.792;9.628;2023-09-08T01:45:28;17.75;;;7.85;;
18887;SDS011;9576;47.792;9.628;2023-09-08T01:48:30;11.20;;;7.65;;
18887;SDS011;9576;47.792;9.628;2023-09-08T01:51:32;14.43;;;8.32;;
18887;SDS011;9576;47.792;9.628;2023-09-08T01:54:35;16.67;;;8.20;;
18887;SDS011;9576;47.792;9.628;2023-09-08T01:57:38;14.07;;;7.88;;
18887;SDS011;9576;47.792;9.628;2023-09-08T02:00:40;14.55;;;10.63;;
18887;SDS011;9576;47.792;9.628;2023-09-08T02:03:42;17.20;;;8.80;;
18887;SDS011;9576;47.792;9.628;2023-09-08T02:06:44;17.90;;;8.60;;
18887;SDS011;9576;47.792;9.628;2023-09-08T02:09:46;16.00;;;8.80;;
18887;SDS011;9576;47.792;9.628;2023-09-08T02:12:50;18.77;;;8.20;;
18887;SDS011;9576;47.792;9.628;2023-09-08T02:15:53;11.70;;;8.60;;
18887;SDS011;9576;47.792;9.628;2023-09-08T02:18:55;13.18;;;9.02;;
18887;SDS011;9576;47.792;9.628;2023-09-08T02:21:57;21.83;;;9.35;;
18887;SDS011;9576;47.792;9.628;2023-09-08T02:24:59;13.85;;;8.73;;
18887;SDS011;9576;47.792;9.628;2023-09-08T02:28:03;14.75;;;8.93;;
18887;SDS011;9576;47.792;9.628;2023-09-08T02:31:05;15.20;;;8.77;;
18887;SDS011;9576;47.792;9.628;2023-09-08T02:34:07;15.45;;;9.02;;
18887;SDS011;9576;47.792;9.628;2023-09-08T02:37:11;17.05;;;9.10;;
18887;SDS011;9576;47.792;9.628;2023-09-08T02:40:13;22.98;;;9.77;;
18887;SDS011;9576;47.792;9.628;2023-09-08T02:43:17;12.63;;;8.63;;
18887;SDS011;9576;47.792;9.628;2023-09-08T02:46:19;14.25;;;9.07;;
18887;SDS011;9576;47.792;9.628;2023-09-08T02:49:21;16.75;;;10.45;;
18887;SDS011;9576;47.792;9.628;2023-09-08T02:52:23;23.77;;;10.52;;
18887;SDS011;9576;47.792;9.628;2023-09-08T02:55:25;15.60;;;8.95;;
18887;SDS011;9576;47.792;9.628;2023-09-08T02:58:28;13.13;;;8.77;;
18887;SDS011;9576;47.792;9.628;2023-09-08T03:01:33;23.17;;;9.20;;
18887;SDS011;9576;47.792;9.628;2023-09-08T03:04:35;15.93;;;9.05;;
18887;SDS011;9576;47.792;9.628;2023-09-08T03:07:37;12.60;;;8.98;;
18887;SDS011;9576;47.792;9.628;2023-09-08T03:10:40;13.95;;;9.30;;
18887;SDS011;9576;47.792;9.628;2023-09-08T03:13:43;21.05;;;9.02;;
18887;SDS011;9576;47.792;9.628;2023-09-08T03:16:45;12.35;;;8.00;;
18887;SDS011;9576;47.792;9.628;2023-09-08T03:19:47;13.63;;;8.77;;
18887;SDS011;9576;47.792;9.628;2023-09-08T03:22:49;19.33;;;9.80;;
18887;SDS011;9576;47.792;9.628;2023-09-08T03:25:51;13.90;;;8.52;;
18887;SDS011;9576;47.792;9.628;2023-09-08T03:28:55;15.10;;;9.15;;
18887;SDS011;9576;47.792;9.628;2023-09-08T03:31:57;19.83;;;9.20;;
18887;SDS011;9576;47.792;9.628;2023-09-08T03:34:59;15.43;;;8.85;;
18887;SDS011;9576;47.792;9.628;2023-09-08T03:38:01;14.52;;;9.25;;
18887;SDS011;9576;47.792;9.628;2023-09-08T03:41:03;11.95;;;8.60;;
18887;SDS011;9576;47.792;9.628;2023-09-08T03:44:07;20.88;;;8.50;;
18887;SDS011;9576;47.792;9.628;2023-09-08T03:47:09;12.77;;;8.75;;
18887;SDS011;9576;47.792;9.628;2023-09-08T03:50:11;17.77;;;9.50;;
18887;SDS011;9576;47.792;9.628;2023-09-08T03:53:13;12.13;;;8.55;;
18887;SDS011;9576;47.792;9.628;2023-09-08T03:56:15;21.58;;;9.70;;
18887;SDS011;9576;47.792;9.628;2023-09-08T03:59:19;20.13;;;10.80;;
18887;SDS011;9576;47.792;9.628;2023-09-08T04:02:21;17.13;;;10.27;;
18887;SDS011;9576;47.792;9.628;2023-09-08T04:05:24;14.65;;;9.57;;
18887;SDS011;9576;47.792;9.628;2023-09-08T04:08:26;19.52;;;10.55;;
18887;SDS011;9576;47.792;9.628;2023-09-08T04:11:28;14.32;;;9.95;;
18887;SDS011;9576;47.792;9.628;2023-09-08T04:14:32;14.45;;;8.50;;
18887;SDS011;9576;47.792;9.628;2023-09-08T04:17:34;18.52;;;9.43;;
18887;SDS011;9576;47.792;9.628;2023-09-08T04:20:37;21.20;;;10.23;;
18887;SDS011;9576;47.792;9.628;2023-09-08T04:23:39;14.82;;;8.90;;
18887;SDS011;9576;47.792;9.628;2023-09-08T04:26:41;25.90;;;11.98;;
18887;SDS011;9576;47.792;9.628;2023-09-08T04:29:44;21.63;;;9.00;;
18887;SDS011;9576;47.792;9.628;2023-09-08T04:32:46;15.23;;;10.00;;
18887;SDS011;9576;47.792;9.628;2023-09-08T04:35:48;13.80;;;8.95;;
18887;SDS011;9576;47.792;9.628;2023-09-08T04:38:51;14.20;;;9.65;;
18887;SDS011;9576;47.792;9.628;2023-09-08T04:41:53;24.17;;;10.02;;
18887;SDS011;9576;47.792;9.628;2023-09-08T04:44:56;18.38;;;9.55;;
18887;SDS011;9576;47.792;9.628;2023-09-08T04:47:58;18.98;;;9.98;;
18887;SDS011;9576;47.792;9.628;2023-09-08T04:51:00;18.25;;;9.43;;
18887;SDS011;9576;47.792;9.628;2023-09-08T04:54:02;18.52;;;10.30;;
18887;SDS011;9576;47.792;9.628;2023-09-08T04:57:04;12.43;;;8.88;;
18887;SDS011;9576;47.792;9.628;2023-09-08T05:00:09;18.73;;;10.00;;
18887;SDS011;9576;47.792;9.628;2023-09-08T05:03:12;18.83;;;10.00;;
18887;SDS011;9576;47.792;9.628;2023-09-08T05:06:14;22.38;;;9.90;;
18887;SDS011;9576;47.792;9.628;2023-09-08T05:09:16;19.08;;;10.10;;
18887;SDS011;9576;47.792;9.628;2023-09-08T05:12:18;15.68;;;10.02;;
18887;SDS011;9576;47.792;9.628;2023-09-08T05:15:21;15.38;;;9.93;;
18887;SDS011;9576;47.792;9.628;2023-09-08T05:18:25;28.10;;;12.55;;
18887;SDS011;9576;47.792;9.628;2023-09-08T05:21:28;22.05;;;11.23;;
18887;SDS011;9576;47.792;9.628;2023-09-08T05:24:30;27.75;;;10.80;;
18887;SDS011;9576;47.792;9.628;2023-09-08T05:27:32;30.45;;;11.82;;
18887;SDS011;9576;47.792;9.628;2023-09-08T05:30:35;29.50;;;10.75;;
18887;SDS011;9576;47.792;9.628;2023-09-08T05:33:37;17.42;;;11.18;;
18887;SDS011;9576;47.792;9.628;2023-09-08T05:36:40;29.42;;;12.18;;
18887;SDS011;9576;47.792;9.628;2023-09-08T05:39:42;18.58;;;11.05;;
18887;SDS011;9576;47.792;9.628;2023-09-08T05:42:45;18.42;;;9.43;;
18887;SDS011;9576;47.792;9.628;2023-09-08T05:45:48;17.92;;;10.27;;
18887;SDS011;9576;47.792;9.628;2023-09-08T05:48:50;24.67;;;10.98;;
18887;SDS011;9576;47.792;9.628;2023-09-08T05:51:52;26.80;;;9.85;;
18887;SDS011;9576;47.792;9.628;2023-09-08T05:54:54;20.73;;;9.65;;
18887;SDS011;9576;47.792;9.628;2023-09-08T05:57:57;24.45;;;10.68;;
18887;SDS011;9576;47.792;9.628;2023-09-08T06:01:00;19.23;;;10.77;;
18887;SDS011;9576;47.792;9.628;2023-09-08T06:04:03;32.13;;;11.50;;
18887;SDS011;9576;47.792;9.628;2023-09-08T06:07:05;25.65;;;11.48;;
18887;SDS011;9576;47.792;9.628;2023-09-08T06:10:07;21.90;;;11.43;;
18887;SDS011;9576;47.792;9.628;2023-09-08T06:13:10;21.60;;;10.90;;
18887;SDS011;9576;47.792;9.628;2023-09-08T06:16:13;27.52;;;10.95;;
18887;SDS011;9576;47.792;9.628;2023-09-08T06:19:15;34.88;;;12.52;;
18887;SDS011;9576;47.792;9.628;2023-09-08T06:22:17;18.33;;;12.38;;
18887;SDS011;9576;47.792;9.628;2023-09-08T06:25:19;25.10;;;13.40;;
18887;SDS011;9576;47.792;9.628;2023-09-08T06:28:22;24.95;;;13.85;;
18887;SDS011;9576;47.792;9.628;2023-09-08T06:31:25;28.67;;;15.07;;
18887;SDS011;9576;47.792;9.628;2023-09-08T06:34:28;27.98;;;15.20;;
18887;SDS011;9576;47.792;9.628;2023-09-08T06:37:34;36.53;;;15.75;;
18887;SDS011;9576;47.792;9.628;2023-09-08T06:40:37;30.20;;;15.80;;
18887;SDS011;9576;47.792;9.628;2023-09-08T06:43:39;26.10;;;15.55;;
18887;SDS011;9576;47.792;9.628;2023-09-08T06:46:44;26.35;;;16.42;;
18887;SDS011;9576;47.792;9.628;2023-09-08T06:49:46;28.05;;;15.20;;
18887;SDS011;9576;47.792;9.628;2023-09-08T06:52:48;39.08;;;16.05;;
18887;SDS011;9576;47.792;9.628;2023-09-08T06:55:50;31.50;;;18.27;;
18887;SDS011;9576;47.792;9.628;2023-09-08T06:58:53;45.17;;;18.52;;
18887;SDS011;9576;47.792;9.628;2023-09-08T07:01:56;31.25;;;18.05;;
18887;SDS011;9576;47.792;9.628;2023-09-08T07:04:58;30.13;;;16.83;;
18887;SDS011;9576;47.792;9.628;2023-09-08T07:08:01;27.77;;;15.32;;
18887;SDS011;9576;47.792;9.628;2023-09-08T07:11:03;50.63;;;19.80;;
18887;SDS011;9576;47.792;9.628;2023-09-08T07:14:05;40.13;;;18.48;;
18887;SDS011;9576;47.792;9.628;2023-09-08T07:17:08;30.88;;;18.48;;
18887;SDS011;9576;47.792;9.628;2023-09-08T07:20:11;38.72;;;18.33;;
18887;SDS011;9576;47.792;9.628;2023-09-08T07:23:13;30.45;;;17.27;;
18887;SDS011;9576;47.792;9.628;2023-09-08T07:26:15;30.63;;;17.40;;
18887;SDS011;9576;47.792;9.628;2023-09-08T07:29:18;36.15;;;21.35;;
18887;SDS011;9576;47.792;9.628;2023-09-08T07:32:21;32.58;;;18.15;;
18887;SDS011;9576;47.792;9.628;2023-09-08T07:38:26;32.85;;;16.70;;
18887;SDS011;9576;47.792;9.628;2023-09-08T07:41:28;28.15;;;18.98;;
18887;SDS011;9576;47.792;9.628;2023-09-08T07:44:30;28.55;;;17.33;;
18887;SDS011;9576;47.792;9.628;2023-09-08T07:47:34;31.48;;;18.10;;
18887;SDS011;9576;47.792;9.628;2023-09-08T07:50:38;33.25;;;17.15;;
18887;SDS011;9576;47.792;9.628;2023-09-08T07:53:40;27.70;;;16.48;;
18887;SDS011;9576;47.792;9.628;2023-09-08T07:56:42;35.78;;;17.13;;
18887;SDS011;9576;47.792;9.628;2023-09-08T07:59:44;27.90;;;15.23;;
18887;SDS011;9576;47.792;9.628;2023-09-08T08:02:49;39.13;;;17.20;;
18887;SDS011;9576;47.792;9.628;2023-09-08T08:05:52;29.05;;;14.88;;
18887;SDS011;9576;47.792;9.628;2023-09-08T08:08:54;44.33;;;16.42;;
18887;SDS011;9576;47.792;9.628;2023-09-08T08:11:57;30.33;;;15.98;;
18887;SDS011;9576;47.792;9.628;2023-09-08T08:14:59;27.88;;;16.83;;
18887;SDS011;9576;47.792;9.628;2023-09-08T08:18:02;25.85;;;16.50;;
18887;SDS011;9576;47.792;9.628;2023-09-08T08:21:05;35.88;;;18.33;;
18887;SDS011;9576;47.792;9.628;2023-09-08T08:24:07;37.20;;;17.88;;
18887;SDS011;9576;47.792;9.628;2023-09-08T08:27:10;29.98;;;16.55;;
18887;SDS011;9576;47.792;9.628;2023-09-08T08:30:12;30.33;;;16.25;;
18887;SDS011;9576;47.792;9.628;2023-09-08T08:33:16;38.00;;;16.45;;
18887;SDS011;9576;47.792;9.628;2023-09-08T08:36:18;29.17;;;15.43;;
18887;SDS011;9576;47.792;9.628;2023-09-08T08:39:20;41.80;;;16.48;;
18887;SDS011;9576;47.792;9.628;2023-09-08T08:42:22;31.52;;;15.15;;
18887;SDS011;9576;47.792;9.628;2023-09-08T08:45:24;33.15;;;15.00;;
18887;SDS011;9576;47.792;9.628;2023-09-08T08:48:29;32.42;;;15.00;;
18887;SDS011;9576;47.792;9.628;2023-09-08T08:51:33;21.80;;;13.93;;
18887;SDS011;9576;47.792;9.628;2023-09-08T08:54:38;28.73;;;16.27;;
18887;SDS011;9576;47.792;9.628;2023-09-08T08:57:41;29.55;;;13.88;;
18887;SDS011;9576;47.792;9.628;2023-09-08T09:00:44;36.03;;;14.18;;
18887;SDS011;9576;47.792;9.628;2023-09-08T09:03:48;30.63;;;13.75;;
18887;SDS011;9576;47.792;9.628;2023-09-08T09:06:52;38.13;;;14.70;;
18887;SDS011;9576;47.792;9.628;2023-09-08T09:09:55;26.00;;;13.10;;
18887;SDS011;9576;47.792;9.628;2023-09-08T09:12:57;27.58;;;12.27;;
18887;SDS011;9576;47.792;9.628;2023-09-08T09:15:59;22.20;;;12.27;;
18887;SDS011;9576;47.792;9.628;2023-09-08T09:19:05;26.30;;;12.85;;
18887;SDS011;9576;47.792;9.628;2023-09-08T09:22:07;19.13;;;11.90;;
18887;SDS011;9576;47.792;9.628;2023-09-08T09:25:09;21.98;;;11.10;;
18887;SDS011;9576;47.792;9.628;2023-09-08T09:28:11;24.45;;;11.30;;
18887;SDS011;9576;47.792;9.628;2023-09-08T09:31:13;20.02;;;11.02;;
18887;SDS011;9576;47.792;9.628;2023-09-08T09:34:17;17.02;;;10.40;;
18887;SDS011;9576;47.792;9.628;2023-09-08T09:37:20;31.33;;;13.10;;
18887;SDS011;9576;47.792;9.628;2023-09-08T09:40:22;40.47;;;11.38;;
18887;SDS011;9576;47.792;9.628;2023-09-08T09:43:24;22.60;;;11.57;;
18887;SDS011;9576;47.792;9.628;2023-09-08T09:46:30;25.95;;;9.60;;
18887;SDS011;9576;47.792;9.628;2023-09-08T09:49:35;20.13;;;10.85;;
18887;SDS011;9576;47.792;9.628;2023-09-08T09:52:43;22.00;;;10.82;;
18887;SDS011;9576;47.792;9.628;2023-09-08T09:55:48;18.70;;;10.27;;
18887;SDS011;9576;47.792;9.628;2023-09-08T09:58:52;23.52;;;11.25;;
18887;SDS011;9576;47.792;9.628;2023-09-08T10:01:55;24.58;;;11.48;;
18887;SDS011;9576;47.792;9.628;2023-09-08T10:04:58;17.63;;;9.93;;
18887;SDS011;9576;47.792;9.628;2023-09-08T10:08:12;59.15;;;14.85;;
18887;SDS011;9576;47.792;9.628;2023-09-08T10:11:16;18.60;;;10.27;;
18887;SDS011;9576;47.792;9.628;2023-09-08T10:14:22;13.90;;;8.82;;
18887;SDS011;9576;47.792;9.628;2023-09-08T10:17:26;18.45;;;11.32;;
18887;SDS011;9576;47.792;9.628;2023-09-08T10:20:33;24.17;;;10.32;;
18887;SDS011;9576;47.792;9.628;2023-09-08T10:23:36;18.13;;;8.35;;
18887;SDS011;9576;47.792;9.628;2023-09-08T10:26:43;13.68;;;9.00;;
18887;SDS011;9576;47.792;9.628;2023-09-08T10:29:48;18.35;;;9.02;;
18887;SDS011;9576;47.792;9.628;2023-09-08T10:32:51;12.80;;;8.13;;
18887;SDS011;9576;47.792;9.628;2023-09-08T10:35:54;12.55;;;8.75;;
18887;SDS011;9576;47.792;9.628;2023-09-08T10:42:24;18.17;;;7.70;;
18887;SDS011;9576;47.792;9.628;2023-09-08T10:45:28;16.13;;;8.57;;
18887;SDS011;9576;47.792;9.628;2023-09-08T10:48:37;12.57;;;7.50;;
18887;SDS011;9576;47.792;9.628;2023-09-08T10:51:44;13.23;;;8.48;;
18887;SDS011;9576;47.792;9.628;2023-09-08T10:54:50;23.55;;;8.95;;
18887;SDS011;9576;47.792;9.628;2023-09-08T10:57:54;12.50;;;8.02;;
18887;SDS011;9576;47.792;9.628;2023-09-08T11:00:59;10.43;;;8.15;;
18887;SDS011;9576;47.792;9.628;2023-09-08T11:04:04;11.40;;;7.82;;
18887;SDS011;9576;47.792;9.628;2023-09-08T11:07:11;15.35;;;8.70;;
18887;SDS011;9576;47.792;9.628;2023-09-08T11:10:13;15.52;;;8.30;;
18887;SDS011;9576;47.792;9.628;2023-09-08T11:13:15;11.63;;;7.63;;
18887;SDS011;9576;47.792;9.628;2023-09-08T11:16:17;9.00;;;7.15;;
18887;SDS011;9576;47.792;9.628;2023-09-08T11:19:23;12.57;;;7.78;;
18887;SDS011;9576;47.792;9.628;2023-09-08T11:22:26;13.05;;;7.88;;
18887;SDS011;9576;47.792;9.628;2023-09-08T11:25:29;11.90;;;7.25;;
18887;SDS011;9576;47.792;9.628;2023-09-08T11:28:31;14.60;;;7.20;;
18887;SDS011;9576;47.792;9.628;2023-09-08T11:31:33;12.98;;;6.93;;
18887;SDS011;9576;47.792;9.628;2023-09-08T11:34:36;14.93;;;7.15;;
18887;SDS011;9576;47.792;9.628;2023-09-08T11:37:40;13.60;;;6.40;;
18887;SDS011;9576;47.792;9.628;2023-09-08T11:40:42;16.23;;;7.40;;
18887;SDS011;9576;47.792;9.628;2023-09-08T11:43:44;11.88;;;7.57;;
18887;SDS011;9576;47.792;9.628;2023-09-08T11:46:46;10.68;;;7.13;;
18887;SDS011;9576;47.792;9.628;2023-09-08T11:49:49;11.38;;;6.72;;
18887;SDS011;9576;47.792;9.628;2023-09-08T11:52:55;12.68;;;7.07;;
18887;SDS011;9576;47.792;9.628;2023-09-08T11:55:59;15.63;;;7.22;;
18887;SDS011;9576;47.792;9.628;2023-09-08T11:59:01;14.13;;;7.05;;
18887;SDS011;9576;47.792;9.628;2023-09-08T12:02:04;10.35;;;6.07;;
18887;SDS011;9576;47.792;9.628;2023-09-08T12:05:10;9.77;;;6.10;;
18887;SDS011;9576;47.792;9.628;2023-09-08T12:08:15;9.10;;;5.70;;
18887;SDS011;9576;47.792;9.628;2023-09-08T12:11:17;10.30;;;6.35;;
18887;SDS011;9576;47.792;9.628;2023-09-08T12:14:19;12.43;;;6.68;;
18887;SDS011;9576;47.792;9.628;2023-09-08T12:17:21;13.73;;;6.63;;
18887;SDS011;9576;47.792;9.628;2023-09-08T12:20:25;18.85;;;5.90;;
18887;SDS011;9576;47.792;9.628;2023-09-08T12:23:29;23.08;;;6.90;;
18887;SDS011;9576;47.792;9.628;2023-09-08T12:26:31;8.85;;;6.07;;
18887;SDS011;9576;47.792;9.628;2023-09-08T12:29:33;8.98;;;6.40;;
18887;SDS011;9576;47.792;9.628;2023-09-08T12:32:35;16.38;;;5.55;;
18887;SDS011;9576;47.792;9.628;2023-09-08T12:35:37;15.75;;;6.03;;
18887;SDS011;9576;47.792;9.628;2023-09-08T12:38:41;12.90;;;6.00;;
18887;SDS011;9576;47.792;9.628;2023-09-08T12:41:48;13.07;;;6.05;;
18887;SDS011;9576;47.792;9.628;2023-09-08T12:44:50;8.27;;;5.40;;
18887;SDS011;9576;47.792;9.628;2023-09-08T12:47:53;13.95;;;6.18;;
18887;SDS011;9576;47.792;9.628;2023-09-08T12:50:58;11.88;;;5.88;;
18887;SDS011;9576;47.792;9.628;2023-09-08T12:54:01;9.60;;;5.00;;
18887;SDS011;9576;47.792;9.628;2023-09-08T12:57:04;13.57;;;5.90;;
18887;SDS011;9576;47.792;9.628;2023-09-08T13:00:06;7.65;;;6.05;;
18887;SDS011;9576;47.792;9.628;2023-09-08T13:03:09;8.18;;;5.57;;
18887;SDS011;9576;47.792;9.628;2023-09-08T13:06:11;7.45;;;5.65;;
18887;SDS011;9576;47.792;9.628;2023-09-08T13:09:15;11.48;;;5.60;;
18887;SDS011;9576;47.792;9.628;2023-09-08T13:12:17;9.50;;;5.70;;
18887;SDS011;9576;47.792;9.628;2023-09-08T13:15:19;14.52;;;5.18;;
18887;SDS011;9576;47.792;9.628;2023-09-08T13:18:22;8.82;;;5.75;;
18887;SDS011;9576;47.792;9.628;2023-09-08T13:21:24;8.15;;;5.55;;
18887;SDS011;9576;47.792;9.628;2023-09-08T13:24:27;6.30;;;4.90;;
18887;SDS011;9576;47.792;9.628;2023-09-08T13:27:29;10.50;;;5.40;;
18887;SDS011;9576;47.792;9.628;2023-09-08T13:30:31;12.35;;;5.85;;
18887;SDS011;9576;47.792;9.628;2023-09-08T13:33:33;12.65;;;5.82;;
18887;SDS011;9576;47.792;9.628;2023-09-08T13:36:35;6.90;;;5.22;;
18887;SDS011;9576;47.792;9.628;2023-09-08T13:39:39;5.60;;;4.72;;
18887;SDS011;9576;47.792;9.628;2023-09-08T13:42:41;12.67;;;5.73;;
18887;SDS011;9576;47.792;9.628;2023-09-08T13:45:43;10.63;;;5.18;;
18887;SDS011;9576;47.792;9.628;2023-09-08T13:48:45;9.15;;;5.00;;
18887;SDS011;9576;47.792;9.628;2023-09-08T13:51:47;7.40;;;5.05;;
18887;SDS011;9576;47.792;9.628;2023-09-08T13:54:52;9.07;;;4.38;;
18887;SDS011;9576;47.792;9.628;2023-09-08T13:57:54;8.13;;;5.13;;
18887;SDS011;9576;47.792;9.628;2023-09-08T14:00:56;15.15;;;5.63;;
18887;SDS011;9576;47.792;9.628;2023-09-08T14:03:59;14.95;;;5.22;;
18887;SDS011;9576;47.792;9.628;2023-09-08T14:07:01;7.90;;;5.25;;
18887;SDS011;9576;47.792;9.628;2023-09-08T14:10:05;13.38;;;4.90;;
18887;SDS011;9576;47.792;9.628;2023-09-08T14:13:08;10.23;;;5.22;;
18887;SDS011;9576;47.792;9.628;2023-09-08T14:16:10;8.65;;;5.28;;
18887;SDS011;9576;47.792;9.628;2023-09-08T14:19:13;8.80;;;5.38;;
18887;SDS011;9576;47.792;9.628;2023-09-08T14:22:15;9.93;;;5.25;;
18887;SDS011;9576;47.792;9.628;2023-09-08T14:25:18;9.93;;;4.65;;
18887;SDS011;9576;47.792;9.628;2023-09-08T14:28:21;12.38;;;5.07;;
18887;SDS011;9576;47.792;9.628;2023-09-08T14:31:23;8.73;;;5.28;;
18887;SDS011;9576;47.792;9.628;2023-09-08T14:34:25;9.60;;;4.95;;
18887;SDS011;9576;47.792;9.628;2023-09-08T14:37:27;6.82;;;4.95;;
18887;SDS011;9576;47.792;9.628;2023-09-08T14:40:30;11.48;;;4.90;;
18887;SDS011;9576;47.792;9.628;2023-09-08T14:43:32;6.75;;;4.53;;
18887;SDS011;9576;47.792;9.628;2023-09-08T14:46:34;9.20;;;5.13;;
18887;SDS011;9576;47.792;9.628;2023-09-08T14:49:36;12.20;;;5.40;;
18887;SDS011;9576;47.792;9.628;2023-09-08T14:52:39;9.93;;;5.25;;
18887;SDS011;9576;47.792;9.628;2023-09-08T14:55:42;7.15;;;4.55;;
18887;SDS011;9576;47.792;9.628;2023-09-08T14:58:45;19.15;;;4.90;;
18887;SDS011;9576;47.792;9.628;2023-09-08T15:01:47;7.68;;;4.80;;
18887;SDS011;9576;47.792;9.628;2023-09-08T15:07:53;10.55;;;4.75;;
18887;SDS011;9576;47.792;9.628;2023-09-08T15:10:56;6.00;;;4.93;;
18887;SDS011;9576;47.792;9.628;2023-09-08T15:13:58;7.00;;;5.07;;
18887;SDS011;9576;47.792;9.628;2023-09-08T15:17:00;9.50;;;4.80;;
18887;SDS011;9576;47.792;9.628;2023-09-08T15:20:02;7.28;;;5.00;;
18887;SDS011;9576;47.792;9.628;2023-09-08T15:23:05;14.68;;;5.13;;
18887;SDS011;9576;47.792;9.628;2023-09-08T15:26:08;6.85;;;5.10;;
18887;SDS011;9576;47.792;9.628;2023-09-08T15:29:11;8.43;;;5.38;;
18887;SDS011;9576;47.792;9.628;2023-09-08T15:35:16;10.95;;;4.82;;
18887;SDS011;9576;47.792;9.628;2023-09-08T15:38:18;17.25;;;5.18;;
18887;SDS011;9576;47.792;9.628;2023-09-08T15:41:22;15.20;;;4.57;;
18887;SDS011;9576;47.792;9.628;2023-09-08T15:44:24;10.13;;;5.18;;
18887;SDS011;9576;47.792;9.628;2023-09-08T15:47:26;7.57;;;4.50;;
18887;SDS011;9576;47.792;9.628;2023-09-08T15:50:28;9.10;;;5.07;;
18887;SDS011;9576;47.792;9.628;2023-09-08T15:53:30;15.13;;;4.78;;
18887;SDS011;9576;47.792;9.628;2023-09-08T15:56:34;17.75;;;5.18;;
18887;SDS011;9576;47.792;9.628;2023-09-08T15:59:36;8.20;;;5.07;;
18887;SDS011;9576;47.792;9.628;2023-09-08T16:02:39;9.80;;;5.65;;
18887;SDS011;9576;47.792;9.628;2023-09-08T16:05:42;8.60;;;4.85;;
18887;SDS011;9576;47.792;9.628;2023-09-08T16:08:44;10.05;;;5.20;;
18887;SDS011;9576;47.792;9.628;2023-09-08T16:11:48;6.25;;;4.70;;
18887;SDS011;9576;47.792;9.628;2023-09-08T16:14:50;9.00;;;4.70;;
18887;SDS011;9576;47.792;9.628;2023-09-08T16:17:52;10.15;;;4.82;;
18887;SDS011;9576;47.792;9.628;2023-09-08T16:20:54;5.43;;;4.25;;
18887;SDS011;9576;47.792;9.628;2023-09-08T16:23:56;10.25;;;5.10;;
18887;SDS011;9576;47.792;9.628;2023-09-08T16:27:00;9.57;;;5.20;;
18887;SDS011;9576;47.792;9.628;2023-09-08T16:30:03;14.77;;;4.75;;
18887;SDS011;9576;47.792;9.628;2023-09-08T16:33:06;6.97;;;4.85;;
18887;SDS011;9576;47.792;9.628;2023-09-08T16:36:08;8.10;;;4.85;;
18887;SDS011;9576;47.792;9.628;2023-09-08T16:39:11;10.60;;;4.80;;
18887;SDS011;9576;47.792;9.628;2023-09-08T16:42:14;9.82;;;5.32;;
18887;SDS011;9576;47.792;9.628;2023-09-08T16:45:16;8.03;;;5.20;;
18887;SDS011;9576;47.792;9.628;2023-09-08T16:48:18;9.85;;;5.47;;
18887;SDS011;9576;47.792;9.628;2023-09-08T16:51:21;8.40;;;5.70;;
18887;SDS011;9576;47.792;9.628;2023-09-08T16:54:23;9.77;;;6.25;;
18887;SDS011;9576;47.792;9.628;2023-09-08T16:57:27;8.18;;;5.32;;
18887;SDS011;9576;47.792;9.628;2023-09-08T17:00:29;14.73;;;5.23;;
18887;SDS011;9576;47.792;9.628;2023-09-08T17:03:31;8.55;;;5.88;;
18887;SDS011;9576;47.792;9.628;2023-09-08T17:06:33;8.70;;;5.55;;
18887;SDS011;9576;47.792;9.628;2023-09-08T17:09:35;11.57;;;5.85;;
18887;SDS011;9576;47.792;9.628;2023-09-08T17:12:39;9.00;;;6.10;;
18887;SDS011;9576;47.792;9.628;2023-09-08T17:15:41;17.83;;;6.20;;
18887;SDS011;9576;47.792;9.628;2023-09-08T17:18:43;10.50;;;7.10;;
18887;SDS011;9576;47.792;9.628;2023-09-08T17:21:45;13.98;;;6.93;;
18887;SDS011;9576;47.792;9.628;2023-09-08T17:27:52;15.98;;;6.93;;
18887;SDS011;9576;47.792;9.628;2023-09-08T17:30:56;15.23;;;8.13;;
18887;SDS011;9576;47.792;9.628;2023-09-08T17:33:58;14.65;;;7.35;;
18887;SDS011;9576;47.792;9.628;2023-09-08T17:37:00;16.30;;;7.28;;
18887;SDS011;9576;47.792;9.628;2023-09-08T17:40:03;16.30;;;7.30;;
18887;SDS011;9576;47.792;9.628;2023-09-08T17:43:07;11.68;;;7.35;;
18887;SDS011;9576;47.792;9.628;2023-09-08T17:46:09;13.48;;;7.13;;
18887;SDS011;9576;47.792;9.628;2023-09-08T17:49:11;19.58;;;7.97;;
18887;SDS011;9576;47.792;9.628;2023-09-08T17:52:13;16.75;;;8.18;;
18887;SDS011;9576;47.792;9.628;2023-09-08T17:55:16;16.45;;;8.52;;
18887;SDS011;9576;47.792;9.628;2023-09-08T17:58:22;15.80;;;10.40;;
18887;SDS011;9576;47.792;9.628;2023-09-08T18:01:24;16.02;;;9.00;;
18887;SDS011;9576;47.792;9.628;2023-09-08T18:04:26;13.23;;;9.32;;
18887;SDS011;9576;47.792;9.628;2023-09-08T18:07:28;13.82;;;9.68;;
18887;SDS011;9576;47.792;9.628;2023-09-08T18:10:31;25.17;;;9.50;;
18887;SDS011;9576;47.792;9.628;2023-09-08T18:13:34;15.23;;;9.43;;
18887;SDS011;9576;47.792;9.628;2023-09-08T18:16:37;15.13;;;8.37;;
18887;SDS011;9576;47.792;9.628;2023-09-08T18:19:39;31.10;;;13.75;;
18887;SDS011;9576;47.792;9.628;2023-09-08T18:22:42;18.80;;;13.30;;
18887;SDS011;9576;47.792;9.628;2023-09-08T18:25:45;16.50;;;10.45;;
18887;SDS011;9576;47.792;9.628;2023-09-08T18:28:48;14.60;;;10.35;;
18887;SDS011;9576;47.792;9.628;2023-09-08T18:31:50;42.97;;;18.85;;
18887;SDS011;9576;47.792;9.628;2023-09-08T18:34:52;26.35;;;15.80;;